Boo Sonier — WDG3281 — position and weather

sailwx.info

Track history (hours):
 
Tides and Currents Weather Stations Pressure Air Temp Water Temp Dewpoint Dewpoint Depression Visibility Wind Speed Wind Dir Waves Ship Positions

Boo Sonier

Owner: LeBeouf Bros. Towing, LLC, Houma, LA. More information available from US FCC via Universal Licensing System and Coast Guard Vessel Documentation Center.

Last reported at 2015-Jan-29 04:07 UTC. Time now 2015-Feb-01 22:42 UTC.
Position N 30°17' W 088°08'.

Length 21 m.

Type: Tug. MMSI: 367524420.

Date/timePositionNaut miles runAvg speedWind from/ knotsBaromVisibWave heightAir tempDewpointWater temp
2015-Jan-29 04:07N 30°17' W 088°08'99 4.6
2015-Jan-28 06:33N 29°60' W 090°00'3 1.5
2015-Jan-28 04:28N 29°57' W 090°00'12 0.6
2015-Jan-27 08:32N 29°46' W 090°05'3 3.4
2015-Jan-27 07:31N 29°44' W 090°09'4 3.7
2015-Jan-27 06:24N 29°41' W 090°11'31 1.0
2015-Jan-26 00:15N 29°32' W 090°46'16 5.7
2015-Jan-25 21:29N 29°37' W 091°03'5 5.3
2015-Jan-25 20:34N 29°40' W 091°08'4 3.5
2015-Jan-25 19:33N 29°41' W 091°11'5 4.8
2015-Jan-25 18:33N 29°39' W 091°16'5 4.8
2015-Jan-25 17:33N 29°39' W 091°22'5 4.9
2015-Jan-25 16:27N 29°41' W 091°28'4 4.6
2015-Jan-25 15:33N 29°42' W 091°32'4 3.8
2015-Jan-25 14:29N 29°45' W 091°36'4 4.2
2015-Jan-25 13:33N 29°48' W 091°33'13 0.7
2015-Jan-24 19:06N 29°39' W 091°23'4 7.5
2015-Jan-24 18:33N 29°38' W 091°19'7 6.5
2015-Jan-24 17:32N 29°41' W 091°12'2 1.9
2015-Jan-24 16:32N 29°41' W 091°10'4 3.9
2015-Jan-24 15:34N 29°38' W 091°07'3 3.3
2015-Jan-24 14:31N 29°37' W 091°03'5 4.9
2015-Jan-24 13:31N 29°35' W 090°58'56 1.4
2015-Jan-22 22:07N 29°55' W 089°57'5 4.3
2015-Jan-22 21:04N 29°58' W 090°02'0 0.3
2015-Jan-22 19:09N 29°58' W 090°01'3 3.8
2015-Jan-22 18:29N 29°60' W 089°59'0 0.2
2015-Jan-22 17:19N 29°60' W 089°59'0 0.0
2015-Jan-22 11:28N 29°60' W 089°59'0 0.0
2015-Jan-22 08:31N 29°60' W 089°59'0 0.0
2015-Jan-22 00:25N 29°60' W 089°59'0 0.0
2015-Jan-21 22:46N 29°60' W 089°59'0 0.0
2015-Jan-21 20:28N 29°60' W 089°59'0 0.0
2015-Jan-21 19:04N 29°60' W 089°59'0 0.0
2015-Jan-21 16:04N 29°60' W 089°59'0 0.0
2015-Jan-21 14:25N 29°60' W 089°59'0 0.0
2015-Jan-21 12:19N 29°60' W 089°59'2 2.6
2015-Jan-21 11:28N 30°00' W 089°57'  
Track history (hours):
 
Tides and Currents Weather Stations Pressure Air Temp Water Temp Dewpoint Dewpoint Depression Visibility Wind Speed Wind Dir Waves Ship Positions

Boo Sonier

Owner: LeBeouf Bros. Towing, LLC, Houma, LA. More information available from US FCC via Universal Licensing System and Coast Guard Vessel Documentation Center.

Last reported at 2015-Jan-29 04:07 UTC. Time now 2015-Feb-01 22:42 UTC.
Position N 30°17' W 088°08'.

Length 21 m.

Type: Tug. MMSI: 367524420.

Date/timePositionNaut miles runAvg speedWind from/ knotsBaromVisibWave heightAir tempDewpointWater temp
2015-Jan-29 04:07N 30°17' W 088°08'99 4.6
2015-Jan-28 06:33N 29°60' W 090°00'3 1.5
2015-Jan-28 04:28N 29°57' W 090°00'12 0.6
2015-Jan-27 08:32N 29°46' W 090°05'3 3.4
2015-Jan-27 07:31N 29°44' W 090°09'4 3.7
2015-Jan-27 06:24N 29°41' W 090°11'31 1.0
2015-Jan-26 00:15N 29°32' W 090°46'16 5.7
2015-Jan-25 21:29N 29°37' W 091°03'5 5.3
2015-Jan-25 20:34N 29°40' W 091°08'4 3.5
2015-Jan-25 19:33N 29°41' W 091°11'5 4.8
2015-Jan-25 18:33N 29°39' W 091°16'5 4.8
2015-Jan-25 17:33N 29°39' W 091°22'5 4.9
2015-Jan-25 16:27N 29°41' W 091°28'4 4.6
2015-Jan-25 15:33N 29°42' W 091°32'4 3.8
2015-Jan-25 14:29N 29°45' W 091°36'4 4.2
2015-Jan-25 13:33N 29°48' W 091°33'13 0.7
2015-Jan-24 19:06N 29°39' W 091°23'4 7.5
2015-Jan-24 18:33N 29°38' W 091°19'7 6.5
2015-Jan-24 17:32N 29°41' W 091°12'2 1.9
2015-Jan-24 16:32N 29°41' W 091°10'4 3.9
2015-Jan-24 15:34N 29°38' W 091°07'3 3.3
2015-Jan-24 14:31N 29°37' W 091°03'5 4.9
2015-Jan-24 13:31N 29°35' W 090°58'56 1.4
2015-Jan-22 22:07N 29°55' W 089°57'5 4.3
2015-Jan-22 21:04N 29°58' W 090°02'0 0.3
2015-Jan-22 19:09N 29°58' W 090°01'3 3.8
2015-Jan-22 18:29N 29°60' W 089°59'0 0.2
2015-Jan-22 17:19N 29°60' W 089°59'0 0.0
2015-Jan-22 11:28N 29°60' W 089°59'0 0.0
2015-Jan-22 08:31N 29°60' W 089°59'0 0.0
2015-Jan-22 00:25N 29°60' W 089°59'0 0.0
2015-Jan-21 22:46N 29°60' W 089°59'0 0.0
2015-Jan-21 20:28N 29°60' W 089°59'0 0.0
2015-Jan-21 19:04N 29°60' W 089°59'0 0.0
2015-Jan-21 16:04N 29°60' W 089°59'0 0.0
2015-Jan-21 14:25N 29°60' W 089°59'0 0.0
2015-Jan-21 12:19N 29°60' W 089°59'2 2.6
2015-Jan-21 11:28N 30°00' W 089°57'  

Dump ship's entire track history